sensor_id;sensor_type;location;lat;lon;timestamp;temperature;humidity
80252;DHT22;69562;37.974;23.708;2023-04-24T00:01:27;24.80;30.50
80252;DHT22;69562;37.974;23.708;2023-04-24T00:03:55;24.70;30.50
80252;DHT22;69562;37.974;23.708;2023-04-24T00:06:25;24.80;30.60
80252;DHT22;69562;37.974;23.708;2023-04-24T00:09:01;24.80;30.50
80252;DHT22;69562;37.974;23.708;2023-04-24T00:11:27;24.80;30.60
80252;DHT22;69562;37.974;23.708;2023-04-24T00:13:53;24.70;30.50
80252;DHT22;69562;37.974;23.708;2023-04-24T00:16:19;24.80;30.50
80252;DHT22;69562;37.974;23.708;2023-04-24T00:18:44;24.80;30.60
80252;DHT22;69562;37.974;23.708;2023-04-24T00:21:10;24.80;30.60
80252;DHT22;69562;37.974;23.708;2023-04-24T00:23:36;24.70;30.50
80252;DHT22;69562;37.974;23.708;2023-04-24T00:26:02;24.70;30.60
80252;DHT22;69562;37.974;23.708;2023-04-24T00:28:28;24.80;30.60
80252;DHT22;69562;37.974;23.708;2023-04-24T00:30:54;24.70;30.60
80252;DHT22;69562;37.974;23.708;2023-04-24T00:33:20;24.70;30.60
80252;DHT22;69562;37.974;23.708;2023-04-24T00:35:46;24.70;30.60
80252;DHT22;69562;37.974;23.708;2023-04-24T00:38:11;24.70;30.60
80252;DHT22;69562;37.974;23.708;2023-04-24T00:40:37;24.80;30.70
80252;DHT22;69562;37.974;23.708;2023-04-24T00:43:03;24.80;30.60
80252;DHT22;69562;37.974;23.708;2023-04-24T00:45:29;24.70;30.60
80252;DHT22;69562;37.974;23.708;2023-04-24T00:47:57;24.70;30.60
80252;DHT22;69562;37.974;23.708;2023-04-24T00:50:24;24.70;30.60
80252;DHT22;69562;37.974;23.708;2023-04-24T00:52:50;24.80;30.70
80252;DHT22;69562;37.974;23.708;2023-04-24T00:55:16;24.80;30.80
80252;DHT22;69562;37.974;23.708;2023-04-24T00:57:43;24.80;30.70
80252;DHT22;69562;37.974;23.708;2023-04-24T01:00:09;24.70;30.70
80252;DHT22;69562;37.974;23.708;2023-04-24T01:02:39;24.70;30.70
80252;DHT22;69562;37.974;23.708;2023-04-24T01:05:09;24.70;30.70
80252;DHT22;69562;37.974;23.708;2023-04-24T01:07:35;24.70;30.70
80252;DHT22;69562;37.974;23.708;2023-04-24T01:10:02;24.70;30.70
80252;DHT22;69562;37.974;23.708;2023-04-24T01:12:28;24.70;30.70
80252;DHT22;69562;37.974;23.708;2023-04-24T01:14:54;24.70;30.70
80252;DHT22;69562;37.974;23.708;2023-04-24T01:17:20;24.70;30.70
80252;DHT22;69562;37.974;23.708;2023-04-24T01:19:46;24.70;30.80
80252;DHT22;69562;37.974;23.708;2023-04-24T01:22:15;24.70;30.90
80252;DHT22;69562;37.974;23.708;2023-04-24T01:24:42;24.70;30.80
80252;DHT22;69562;37.974;23.708;2023-04-24T01:27:09;24.70;30.90
80252;DHT22;69562;37.974;23.708;2023-04-24T01:29:34;24.70;30.90
80252;DHT22;69562;37.974;23.708;2023-04-24T01:32:00;24.70;30.90
80252;DHT22;69562;37.974;23.708;2023-04-24T01:34:26;24.60;30.90
80252;DHT22;69562;37.974;23.708;2023-04-24T01:36:52;24.60;30.90
80252;DHT22;69562;37.974;23.708;2023-04-24T01:39:18;24.60;30.90
80252;DHT22;69562;37.974;23.708;2023-04-24T01:41:46;24.70;31.00
80252;DHT22;69562;37.974;23.708;2023-04-24T01:44:13;24.70;31.00
80252;DHT22;69562;37.974;23.708;2023-04-24T01:46:39;24.70;31.00
80252;DHT22;69562;37.974;23.708;2023-04-24T01:49:04;24.70;31.00
80252;DHT22;69562;37.974;23.708;2023-04-24T01:51:31;24.70;31.00
80252;DHT22;69562;37.974;23.708;2023-04-24T01:53:57;24.60;30.90
80252;DHT22;69562;37.974;23.708;2023-04-24T01:56:22;24.70;31.00
80252;DHT22;69562;37.974;23.708;2023-04-24T01:58:50;24.60;30.90
80252;DHT22;69562;37.974;23.708;2023-04-24T02:01:20;24.70;31.00
80252;DHT22;69562;37.974;23.708;2023-04-24T02:03:46;24.70;31.00
80252;DHT22;69562;37.974;23.708;2023-04-24T02:06:12;24.70;31.00
80252;DHT22;69562;37.974;23.708;2023-04-24T02:08:38;24.60;30.90
80252;DHT22;69562;37.974;23.708;2023-04-24T02:11:03;24.70;31.00
80252;DHT22;69562;37.974;23.708;2023-04-24T02:13:29;24.60;30.90
80252;DHT22;69562;37.974;23.708;2023-04-24T02:15:55;24.70;31.10
80252;DHT22;69562;37.974;23.708;2023-04-24T02:18:21;24.60;31.00
80252;DHT22;69562;37.974;23.708;2023-04-24T02:20:48;24.60;31.00
80252;DHT22;69562;37.974;23.708;2023-04-24T02:23:13;24.60;31.00
80252;DHT22;69562;37.974;23.708;2023-04-24T02:25:40;24.60;31.00
80252;DHT22;69562;37.974;23.708;2023-04-24T02:28:05;24.60;31.10
80252;DHT22;69562;37.974;23.708;2023-04-24T02:30:31;24.60;31.00
80252;DHT22;69562;37.974;23.708;2023-04-24T02:32:57;24.60;31.10
80252;DHT22;69562;37.974;23.708;2023-04-24T02:35:23;24.60;31.00
80252;DHT22;69562;37.974;23.708;2023-04-24T02:37:48;24.60;31.10
80252;DHT22;69562;37.974;23.708;2023-04-24T02:40:14;24.60;31.00
80252;DHT22;69562;37.974;23.708;2023-04-24T02:42:40;24.60;31.10
80252;DHT22;69562;37.974;23.708;2023-04-24T02:45:06;24.60;31.20
80252;DHT22;69562;37.974;23.708;2023-04-24T02:47:32;24.60;31.10
80252;DHT22;69562;37.974;23.708;2023-04-24T02:49:58;24.60;31.20
80252;DHT22;69562;37.974;23.708;2023-04-24T02:52:23;24.60;31.20
80252;DHT22;69562;37.974;23.708;2023-04-24T02:54:49;24.60;31.20
80252;DHT22;69562;37.974;23.708;2023-04-24T02:57:15;24.60;31.20
80252;DHT22;69562;37.974;23.708;2023-04-24T02:59:41;24.50;31.20
80252;DHT22;69562;37.974;23.708;2023-04-24T03:02:07;24.50;31.10
80252;DHT22;69562;37.974;23.708;2023-04-24T03:04:32;24.50;31.20
80252;DHT22;69562;37.974;23.708;2023-04-24T03:06:58;24.50;31.20
80252;DHT22;69562;37.974;23.708;2023-04-24T03:09:24;24.50;31.20
80252;DHT22;69562;37.974;23.708;2023-04-24T03:11:50;24.50;31.20
80252;DHT22;69562;37.974;23.708;2023-04-24T03:14:16;24.50;31.20
80252;DHT22;69562;37.974;23.708;2023-04-24T03:16:42;24.50;31.20
80252;DHT22;69562;37.974;23.708;2023-04-24T03:19:08;24.50;31.20
80252;DHT22;69562;37.974;23.708;2023-04-24T03:21:34;24.50;31.20
80252;DHT22;69562;37.974;23.708;2023-04-24T03:24:01;24.50;31.30
80252;DHT22;69562;37.974;23.708;2023-04-24T03:26:27;24.50;31.20
80252;DHT22;69562;37.974;23.708;2023-04-24T03:28:53;24.50;32.20
80252;DHT22;69562;37.974;23.708;2023-04-24T03:31:18;24.50;31.40
80252;DHT22;69562;37.974;23.708;2023-04-24T03:33:46;24.50;31.40
80252;DHT22;69562;37.974;23.708;2023-04-24T03:36:12;24.50;31.30
80252;DHT22;69562;37.974;23.708;2023-04-24T03:38:38;24.50;31.40
80252;DHT22;69562;37.974;23.708;2023-04-24T03:41:03;24.50;31.60
80252;DHT22;69562;37.974;23.708;2023-04-24T03:43:29;24.50;31.80
80252;DHT22;69562;37.974;23.708;2023-04-24T03:45:55;24.60;31.90
80252;DHT22;69562;37.974;23.708;2023-04-24T03:48:20;24.60;31.90
80252;DHT22;69562;37.974;23.708;2023-04-24T03:50:46;24.60;31.80
80252;DHT22;69562;37.974;23.708;2023-04-24T03:53:12;24.60;31.80
80252;DHT22;69562;37.974;23.708;2023-04-24T03:55:38;24.60;31.80
80252;DHT22;69562;37.974;23.708;2023-04-24T03:58:03;24.60;31.80
80252;DHT22;69562;37.974;23.708;2023-04-24T04:00:29;24.60;31.80
80252;DHT22;69562;37.974;23.708;2023-04-24T04:02:58;24.60;32.80
80252;DHT22;69562;37.974;23.708;2023-04-24T04:05:24;24.60;31.80
80252;DHT22;69562;37.974;23.708;2023-04-24T04:07:50;24.60;31.80
80252;DHT22;69562;37.974;23.708;2023-04-24T04:10:16;24.60;31.80
80252;DHT22;69562;37.974;23.708;2023-04-24T04:12:42;24.70;31.80
80252;DHT22;69562;37.974;23.708;2023-04-24T04:15:08;24.70;31.70
80252;DHT22;69562;37.974;23.708;2023-04-24T04:17:34;24.70;31.70
80252;DHT22;69562;37.974;23.708;2023-04-24T04:20:00;24.80;32.00
80252;DHT22;69562;37.974;23.708;2023-04-24T04:22:26;24.90;32.40
80252;DHT22;69562;37.974;23.708;2023-04-24T04:24:52;25.00;32.70
80252;DHT22;69562;37.974;23.708;2023-04-24T04:27:18;25.00;32.80
80252;DHT22;69562;37.974;23.708;2023-04-24T04:29:44;25.10;32.80
80252;DHT22;69562;37.974;23.708;2023-04-24T04:32:10;25.20;32.70
80252;DHT22;69562;37.974;23.708;2023-04-24T04:34:36;25.30;32.50
80252;DHT22;69562;37.974;23.708;2023-04-24T04:37:03;25.30;32.20
80252;DHT22;69562;37.974;23.708;2023-04-24T04:39:29;25.40;32.10
80252;DHT22;69562;37.974;23.708;2023-04-24T04:41:55;25.50;31.90
80252;DHT22;69562;37.974;23.708;2023-04-24T04:44:20;25.60;31.70
80252;DHT22;69562;37.974;23.708;2023-04-24T04:46:47;25.70;31.70
80252;DHT22;69562;37.974;23.708;2023-04-24T04:49:12;25.60;31.50
80252;DHT22;69562;37.974;23.708;2023-04-24T04:51:38;25.70;31.50
80252;DHT22;69562;37.974;23.708;2023-04-24T04:54:04;25.70;31.40
80252;DHT22;69562;37.974;23.708;2023-04-24T04:56:30;25.80;31.40
80252;DHT22;69562;37.974;23.708;2023-04-24T04:58:56;25.80;31.30
80252;DHT22;69562;37.974;23.708;2023-04-24T05:01:21;26.00;31.30
80252;DHT22;69562;37.974;23.708;2023-04-24T05:03:48;26.10;31.00
80252;DHT22;69562;37.974;23.708;2023-04-24T05:06:14;26.20;30.90
80252;DHT22;69562;37.974;23.708;2023-04-24T05:08:40;26.20;30.70
80252;DHT22;69562;37.974;23.708;2023-04-24T05:11:06;26.20;30.80
80252;DHT22;69562;37.974;23.708;2023-04-24T05:13:32;26.10;30.70
80252;DHT22;69562;37.974;23.708;2023-04-24T05:15:58;26.10;30.90
80252;DHT22;69562;37.974;23.708;2023-04-24T05:18:24;26.00;30.90
80252;DHT22;69562;37.974;23.708;2023-04-24T05:20:50;26.00;30.90
80252;DHT22;69562;37.974;23.708;2023-04-24T05:23:15;26.00;31.00
80252;DHT22;69562;37.974;23.708;2023-04-24T05:25:41;26.00;31.00
80252;DHT22;69562;37.974;23.708;2023-04-24T05:28:07;26.00;31.00
80252;DHT22;69562;37.974;23.708;2023-04-24T05:30:32;26.00;31.00
80252;DHT22;69562;37.974;23.708;2023-04-24T05:32:58;25.90;30.90
80252;DHT22;69562;37.974;23.708;2023-04-24T05:35:24;25.90;30.90
80252;DHT22;69562;37.974;23.708;2023-04-24T05:37:50;25.90;31.00
80252;DHT22;69562;37.974;23.708;2023-04-24T05:40:16;25.90;31.10
80252;DHT22;69562;37.974;23.708;2023-04-24T05:42:42;25.90;31.10
80252;DHT22;69562;37.974;23.708;2023-04-24T05:45:08;25.80;31.10
80252;DHT22;69562;37.974;23.708;2023-04-24T05:47:34;25.80;31.20
80252;DHT22;69562;37.974;23.708;2023-04-24T05:50:00;25.80;31.30
80252;DHT22;69562;37.974;23.708;2023-04-24T05:52:26;25.80;31.30
80252;DHT22;69562;37.974;23.708;2023-04-24T05:54:51;25.80;31.40
80252;DHT22;69562;37.974;23.708;2023-04-24T05:57:17;25.70;31.40
80252;DHT22;69562;37.974;23.708;2023-04-24T05:59:43;25.70;31.40
80252;DHT22;69562;37.974;23.708;2023-04-24T06:02:08;25.70;31.40
80252;DHT22;69562;37.974;23.708;2023-04-24T06:04:34;25.70;31.40
80252;DHT22;69562;37.974;23.708;2023-04-24T06:07:01;25.70;31.40
80252;DHT22;69562;37.974;23.708;2023-04-24T06:09:27;25.70;31.40
80252;DHT22;69562;37.974;23.708;2023-04-24T06:11:52;25.70;31.50
80252;DHT22;69562;37.974;23.708;2023-04-24T06:14:19;25.70;31.50
80252;DHT22;69562;37.974;23.708;2023-04-24T06:16:45;25.70;31.50
80252;DHT22;69562;37.974;23.708;2023-04-24T06:19:11;25.70;31.50
80252;DHT22;69562;37.974;23.708;2023-04-24T06:21:37;25.70;31.50
80252;DHT22;69562;37.974;23.708;2023-04-24T06:24:03;25.70;31.60
80252;DHT22;69562;37.974;23.708;2023-04-24T06:26:29;25.70;31.60
80252;DHT22;69562;37.974;23.708;2023-04-24T06:28:56;25.70;31.70
80252;DHT22;69562;37.974;23.708;2023-04-24T06:31:22;25.70;31.60
80252;DHT22;69562;37.974;23.708;2023-04-24T06:33:48;25.70;31.60
80252;DHT22;69562;37.974;23.708;2023-04-24T06:36:14;25.70;31.70
80252;DHT22;69562;37.974;23.708;2023-04-24T06:38:39;25.70;31.70
80252;DHT22;69562;37.974;23.708;2023-04-24T06:41:05;25.70;31.70
80252;DHT22;69562;37.974;23.708;2023-04-24T06:43:31;25.70;31.70
80252;DHT22;69562;37.974;23.708;2023-04-24T06:45:58;25.70;31.80
80252;DHT22;69562;37.974;23.708;2023-04-24T06:48:24;25.70;31.80
80252;DHT22;69562;37.974;23.708;2023-04-24T06:50:50;25.70;31.80
80252;DHT22;69562;37.974;23.708;2023-04-24T06:53:16;25.70;31.80
80252;DHT22;69562;37.974;23.708;2023-04-24T06:55:42;25.60;31.80
80252;DHT22;69562;37.974;23.708;2023-04-24T06:58:09;25.60;31.80
80252;DHT22;69562;37.974;23.708;2023-04-24T07:00:34;25.60;31.80
80252;DHT22;69562;37.974;23.708;2023-04-24T07:03:00;25.70;32.00
80252;DHT22;69562;37.974;23.708;2023-04-24T07:05:26;25.60;31.90
80252;DHT22;69562;37.974;23.708;2023-04-24T07:07:52;25.70;32.10
80252;DHT22;69562;37.974;23.708;2023-04-24T07:10:18;25.60;31.90
80252;DHT22;69562;37.974;23.708;2023-04-24T07:12:45;25.70;32.10
80252;DHT22;69562;37.974;23.708;2023-04-24T07:15:12;25.60;32.00
80252;DHT22;69562;37.974;23.708;2023-04-24T07:17:38;25.70;32.20
80252;DHT22;69562;37.974;23.708;2023-04-24T07:20:09;25.60;32.10
80252;DHT22;69562;37.974;23.708;2023-04-24T07:22:37;25.60;32.10
80252;DHT22;69562;37.974;23.708;2023-04-24T07:25:02;25.60;32.20
80252;DHT22;69562;37.974;23.708;2023-04-24T07:27:28;25.60;32.30
80252;DHT22;69562;37.974;23.708;2023-04-24T07:29:55;25.60;32.30
80252;DHT22;69562;37.974;23.708;2023-04-24T07:32:20;25.60;32.40
80252;DHT22;69562;37.974;23.708;2023-04-24T07:34:46;25.60;32.50
80252;DHT22;69562;37.974;23.708;2023-04-24T07:37:12;25.60;32.50
80252;DHT22;69562;37.974;23.708;2023-04-24T07:39:37;25.60;32.50
80252;DHT22;69562;37.974;23.708;2023-04-24T07:42:03;25.60;32.50
80252;DHT22;69562;37.974;23.708;2023-04-24T07:44:30;25.60;32.50
80252;DHT22;69562;37.974;23.708;2023-04-24T07:46:57;25.60;32.50
80252;DHT22;69562;37.974;23.708;2023-04-24T07:49:23;25.50;32.40
80252;DHT22;69562;37.974;23.708;2023-04-24T07:51:49;25.60;32.50
80252;DHT22;69562;37.974;23.708;2023-04-24T07:54:15;25.50;32.40
80252;DHT22;69562;37.974;23.708;2023-04-24T07:56:41;25.50;32.50
80252;DHT22;69562;37.974;23.708;2023-04-24T07:59:10;25.50;32.60
80252;DHT22;69562;37.974;23.708;2023-04-24T08:01:36;25.50;32.80
80252;DHT22;69562;37.974;23.708;2023-04-24T08:04:05;25.50;32.90
80252;DHT22;69562;37.974;23.708;2023-04-24T08:06:31;25.50;32.90
80252;DHT22;69562;37.974;23.708;2023-04-24T08:08:58;25.50;32.90
80252;DHT22;69562;37.974;23.708;2023-04-24T08:11:24;25.50;33.00
80252;DHT22;69562;37.974;23.708;2023-04-24T08:13:50;25.50;33.10
80252;DHT22;69562;37.974;23.708;2023-04-24T08:16:16;25.50;33.10
80252;DHT22;69562;37.974;23.708;2023-04-24T08:18:42;25.50;33.20
80252;DHT22;69562;37.974;23.708;2023-04-24T08:21:08;25.50;33.20
80252;DHT22;69562;37.974;23.708;2023-04-24T08:23:45;25.50;33.30
80252;DHT22;69562;37.974;23.708;2023-04-24T08:26:15;25.50;33.30
80252;DHT22;69562;37.974;23.708;2023-04-24T08:28:42;25.50;34.50
80252;DHT22;69562;37.974;23.708;2023-04-24T08:31:07;25.50;33.50
80252;DHT22;69562;37.974;23.708;2023-04-24T08:33:33;25.50;33.90
80252;DHT22;69562;37.974;23.708;2023-04-24T08:36:05;25.50;34.20
80252;DHT22;69562;37.974;23.708;2023-04-24T08:38:33;25.50;34.30
80252;DHT22;69562;37.974;23.708;2023-04-24T08:41:02;25.50;34.30
80252;DHT22;69562;37.974;23.708;2023-04-24T08:43:30;25.50;34.30
80252;DHT22;69562;37.974;23.708;2023-04-24T08:45:58;25.50;34.40
80252;DHT22;69562;37.974;23.708;2023-04-24T08:48:25;25.50;34.40
80252;DHT22;69562;37.974;23.708;2023-04-24T08:50:52;25.50;34.40
80252;DHT22;69562;37.974;23.708;2023-04-24T08:53:18;25.50;34.30
80252;DHT22;69562;37.974;23.708;2023-04-24T08:55:47;25.60;34.40
80252;DHT22;69562;37.974;23.708;2023-04-24T08:58:17;25.60;34.40
80252;DHT22;69562;37.974;23.708;2023-04-24T09:00:44;25.60;34.40
80252;DHT22;69562;37.974;23.708;2023-04-24T09:03:16;25.60;34.40
80252;DHT22;69562;37.974;23.708;2023-04-24T09:05:46;25.60;34.30
80252;DHT22;69562;37.974;23.708;2023-04-24T09:08:19;25.60;34.30
80252;DHT22;69562;37.974;23.708;2023-04-24T09:10:46;25.60;34.20
80252;DHT22;69562;37.974;23.708;2023-04-24T09:13:12;25.50;34.10
80252;DHT22;69562;37.974;23.708;2023-04-24T09:15:39;25.50;34.00
80252;DHT22;69562;37.974;23.708;2023-04-24T09:18:05;25.50;34.00
80252;DHT22;69562;37.974;23.708;2023-04-24T09:20:31;25.50;34.00
80252;DHT22;69562;37.974;23.708;2023-04-24T09:22:57;25.50;33.90
80252;DHT22;69562;37.974;23.708;2023-04-24T09:25:31;25.50;34.00
80252;DHT22;69562;37.974;23.708;2023-04-24T09:28:03;25.50;34.00
80252;DHT22;69562;37.974;23.708;2023-04-24T09:30:30;25.50;34.00
80252;DHT22;69562;37.974;23.708;2023-04-24T09:33:15;25.50;33.90
80252;DHT22;69562;37.974;23.708;2023-04-24T09:35:51;25.50;33.90
80252;DHT22;69562;37.974;23.708;2023-04-24T09:38:17;25.50;34.00
80252;DHT22;69562;37.974;23.708;2023-04-24T09:40:43;25.50;34.30
80252;DHT22;69562;37.974;23.708;2023-04-24T09:43:26;25.50;34.30
80252;DHT22;69562;37.974;23.708;2023-04-24T09:45:56;25.60;34.40
80252;DHT22;69562;37.974;23.708;2023-04-24T09:48:33;25.60;34.40
80252;DHT22;69562;37.974;23.708;2023-04-24T09:51:04;25.60;34.50
80252;DHT22;69562;37.974;23.708;2023-04-24T09:53:32;25.60;34.40
80252;DHT22;69562;37.974;23.708;2023-04-24T09:56:10;25.60;34.50
80252;DHT22;69562;37.974;23.708;2023-04-24T09:58:38;25.60;34.50
80252;DHT22;69562;37.974;23.708;2023-04-24T10:01:04;25.60;34.50
80252;DHT22;69562;37.974;23.708;2023-04-24T10:03:31;25.60;34.50
80252;DHT22;69562;37.974;23.708;2023-04-24T10:06:01;25.60;34.50
80252;DHT22;69562;37.974;23.708;2023-04-24T10:08:43;25.60;34.50
80252;DHT22;69562;37.974;23.708;2023-04-24T10:11:09;25.60;34.50
80252;DHT22;69562;37.974;23.708;2023-04-24T10:13:36;25.60;34.50
80252;DHT22;69562;37.974;23.708;2023-04-24T10:16:04;25.60;34.50
80252;DHT22;69562;37.974;23.708;2023-04-24T10:18:42;25.60;34.50
80252;DHT22;69562;37.974;23.708;2023-04-24T10:21:12;25.70;34.70
80252;DHT22;69562;37.974;23.708;2023-04-24T10:23:42;25.70;34.70
80252;DHT22;69562;37.974;23.708;2023-04-24T10:26:09;25.60;34.60
80252;DHT22;69562;37.974;23.708;2023-04-24T10:28:37;25.70;34.80
80252;DHT22;69562;37.974;23.708;2023-04-24T10:31:03;25.70;34.80
80252;DHT22;69562;37.974;23.708;2023-04-24T10:33:30;25.60;34.70
80252;DHT22;69562;37.974;23.708;2023-04-24T10:35:57;25.60;34.80
80252;DHT22;69562;37.974;23.708;2023-04-24T10:38:25;25.70;34.90
80252;DHT22;69562;37.974;23.708;2023-04-24T10:41:06;25.70;35.00
80252;DHT22;69562;37.974;23.708;2023-04-24T10:43:33;25.70;34.90
80252;DHT22;69562;37.974;23.708;2023-04-24T10:46:04;25.70;34.90
80252;DHT22;69562;37.974;23.708;2023-04-24T10:48:32;25.70;34.90
80252;DHT22;69562;37.974;23.708;2023-04-24T10:50:58;25.70;34.90
80252;DHT22;69562;37.974;23.708;2023-04-24T10:53:28;25.70;35.00
80252;DHT22;69562;37.974;23.708;2023-04-24T10:55:58;25.70;34.90
80252;DHT22;69562;37.974;23.708;2023-04-24T10:58:36;25.70;34.90
80252;DHT22;69562;37.974;23.708;2023-04-24T11:01:29;25.70;34.90
80252;DHT22;69562;37.974;23.708;2023-04-24T11:03:57;25.70;35.30
80252;DHT22;69562;37.974;23.708;2023-04-24T11:06:34;25.70;34.90
80252;DHT22;69562;37.974;23.708;2023-04-24T11:09:10;25.70;34.90
80252;DHT22;69562;37.974;23.708;2023-04-24T11:11:45;25.70;34.90
80252;DHT22;69562;37.974;23.708;2023-04-24T11:14:14;25.70;35.00
80252;DHT22;69562;37.974;23.708;2023-04-24T11:16:47;25.70;35.00
80252;DHT22;69562;37.974;23.708;2023-04-24T11:21:46;25.70;34.90
80252;DHT22;69562;37.974;23.708;2023-04-24T11:24:31;25.70;34.90
80252;DHT22;69562;37.974;23.708;2023-04-24T11:37:35;25.70;34.50
80252;DHT22;69562;37.974;23.708;2023-04-24T11:40:05;25.70;34.50
80252;DHT22;69562;37.974;23.708;2023-04-24T11:42:36;25.70;34.60
80252;DHT22;69562;37.974;23.708;2023-04-24T11:45:08;25.70;34.50
80252;DHT22;69562;37.974;23.708;2023-04-24T11:47:35;25.70;34.50
80252;DHT22;69562;37.974;23.708;2023-04-24T11:50:01;25.70;34.50
80252;DHT22;69562;37.974;23.708;2023-04-24T11:52:28;25.80;34.60
80252;DHT22;69562;37.974;23.708;2023-04-24T11:54:54;25.70;34.50
80252;DHT22;69562;37.974;23.708;2023-04-24T11:57:22;25.80;34.60
80252;DHT22;69562;37.974;23.708;2023-04-24T11:59:48;25.70;34.50
80252;DHT22;69562;37.974;23.708;2023-04-24T12:02:24;25.70;34.50
80252;DHT22;69562;37.974;23.708;2023-04-24T12:04:51;25.70;34.50
80252;DHT22;69562;37.974;23.708;2023-04-24T12:07:17;25.70;34.70
80252;DHT22;69562;37.974;23.708;2023-04-24T12:10:03;25.70;34.80
80252;DHT22;69562;37.974;23.708;2023-04-24T12:12:31;25.70;34.90
80252;DHT22;69562;37.974;23.708;2023-04-24T12:14:57;25.70;35.00
80252;DHT22;69562;37.974;23.708;2023-04-24T12:17:33;25.70;35.00
80252;DHT22;69562;37.974;23.708;2023-04-24T12:20:05;25.70;35.00
80252;DHT22;69562;37.974;23.708;2023-04-24T12:25:15;25.70;35.10
80252;DHT22;69562;37.974;23.708;2023-04-24T12:27:41;25.70;35.10
80252;DHT22;69562;37.974;23.708;2023-04-24T12:30:15;25.70;35.10
80252;DHT22;69562;37.974;23.708;2023-04-24T12:32:45;25.70;35.00
80252;DHT22;69562;37.974;23.708;2023-04-24T12:35:12;25.70;34.90
80252;DHT22;69562;37.974;23.708;2023-04-24T12:37:37;25.70;34.80
80252;DHT22;69562;37.974;23.708;2023-04-24T12:40:09;25.70;34.70
80252;DHT22;69562;37.974;23.708;2023-04-24T12:42:44;25.70;34.60
80252;DHT22;69562;37.974;23.708;2023-04-24T12:45:10;25.70;34.60
80252;DHT22;69562;37.974;23.708;2023-04-24T12:47:39;25.70;34.50
80252;DHT22;69562;37.974;23.708;2023-04-24T12:50:09;25.70;34.50
80252;DHT22;69562;37.974;23.708;2023-04-24T12:52:35;25.80;34.60
80252;DHT22;69562;37.974;23.708;2023-04-24T12:55:01;25.80;34.60
80252;DHT22;69562;37.974;23.708;2023-04-24T12:57:29;25.80;34.50
80252;DHT22;69562;37.974;23.708;2023-04-24T12:59:58;25.80;34.40
80252;DHT22;69562;37.974;23.708;2023-04-24T13:02:28;25.80;34.30
80252;DHT22;69562;37.974;23.708;2023-04-24T13:04:57;25.80;34.30
80252;DHT22;69562;37.974;23.708;2023-04-24T13:07:23;25.70;34.10
80252;DHT22;69562;37.974;23.708;2023-04-24T13:09:50;25.80;34.10
80252;DHT22;69562;37.974;23.708;2023-04-24T13:12:16;25.70;33.90
80252;DHT22;69562;37.974;23.708;2023-04-24T13:14:41;25.70;33.80
80252;DHT22;69562;37.974;23.708;2023-04-24T13:17:07;25.70;33.60
80252;DHT22;69562;37.974;23.708;2023-04-24T13:19:38;25.70;33.50
80252;DHT22;69562;37.974;23.708;2023-04-24T13:22:05;25.70;33.30
80252;DHT22;69562;37.974;23.708;2023-04-24T13:24:31;25.70;33.30
80252;DHT22;69562;37.974;23.708;2023-04-24T13:26:58;25.70;33.40
80252;DHT22;69562;37.974;23.708;2023-04-24T13:29:25;25.70;33.40
80252;DHT22;69562;37.974;23.708;2023-04-24T13:31:51;25.70;33.50
80252;DHT22;69562;37.974;23.708;2023-04-24T13:34:20;25.70;33.50
80252;DHT22;69562;37.974;23.708;2023-04-24T13:36:46;25.70;33.50
80252;DHT22;69562;37.974;23.708;2023-04-24T13:39:12;25.70;33.40
80252;DHT22;69562;37.974;23.708;2023-04-24T13:41:38;25.70;33.40
80252;DHT22;69562;37.974;23.708;2023-04-24T13:44:05;25.70;33.50
80252;DHT22;69562;37.974;23.708;2023-04-24T13:46:30;25.60;33.50
80252;DHT22;69562;37.974;23.708;2023-04-24T13:48:56;25.60;33.60
80252;DHT22;69562;37.974;23.708;2023-04-24T13:51:23;25.50;33.60
80252;DHT22;69562;37.974;23.708;2023-04-24T13:53:49;25.50;33.80
80252;DHT22;69562;37.974;23.708;2023-04-24T13:56:15;25.50;33.80
80252;DHT22;69562;37.974;23.708;2023-04-24T13:58:41;25.60;33.90
80252;DHT22;69562;37.974;23.708;2023-04-24T14:01:06;25.60;34.00
80252;DHT22;69562;37.974;23.708;2023-04-24T14:03:33;25.60;34.00
80252;DHT22;69562;37.974;23.708;2023-04-24T14:05:59;25.60;34.00
80252;DHT22;69562;37.974;23.708;2023-04-24T14:08:25;25.60;34.10
80252;DHT22;69562;37.974;23.708;2023-04-24T14:10:51;25.60;34.20
80252;DHT22;69562;37.974;23.708;2023-04-24T14:13:16;25.60;34.30
80252;DHT22;69562;37.974;23.708;2023-04-24T14:15:42;25.50;34.30
80252;DHT22;69562;37.974;23.708;2023-04-24T14:18:08;25.50;34.30
80252;DHT22;69562;37.974;23.708;2023-04-24T14:20:35;25.50;34.30
80252;DHT22;69562;37.974;23.708;2023-04-24T14:23:01;25.50;34.30
80252;DHT22;69562;37.974;23.708;2023-04-24T14:25:27;25.50;34.30
80252;DHT22;69562;37.974;23.708;2023-04-24T14:27:53;25.50;34.40
80252;DHT22;69562;37.974;23.708;2023-04-24T14:30:19;25.50;34.30
80252;DHT22;69562;37.974;23.708;2023-04-24T14:32:44;25.50;34.30
80252;DHT22;69562;37.974;23.708;2023-04-24T14:35:10;25.50;34.20
80252;DHT22;69562;37.974;23.708;2023-04-24T14:37:36;25.50;34.10
80252;DHT22;69562;37.974;23.708;2023-04-24T14:40:03;25.50;34.00
80252;DHT22;69562;37.974;23.708;2023-04-24T14:42:30;25.50;33.90
80252;DHT22;69562;37.974;23.708;2023-04-24T14:44:56;25.50;33.90
80252;DHT22;69562;37.974;23.708;2023-04-24T14:47:22;25.50;33.90
80252;DHT22;69562;37.974;23.708;2023-04-24T14:49:51;25.50;33.90
80252;DHT22;69562;37.974;23.708;2023-04-24T14:52:17;25.40;33.90
80252;DHT22;69562;37.974;23.708;2023-04-24T14:54:43;25.50;34.10
80252;DHT22;69562;37.974;23.708;2023-04-24T14:57:09;25.50;34.30
80252;DHT22;69562;37.974;23.708;2023-04-24T14:59:35;25.50;34.30
80252;DHT22;69562;37.974;23.708;2023-04-24T15:02:00;25.50;34.40
80252;DHT22;69562;37.974;23.708;2023-04-24T15:04:27;25.40;34.50
80252;DHT22;69562;37.974;23.708;2023-04-24T15:06:56;25.40;35.50
80252;DHT22;69562;37.974;23.708;2023-04-24T15:09:23;25.40;34.40
80252;DHT22;69562;37.974;23.708;2023-04-24T15:11:49;25.50;34.30
80252;DHT22;69562;37.974;23.708;2023-04-24T15:14:16;25.40;34.20
80252;DHT22;69562;37.974;23.708;2023-04-24T15:16:42;25.40;34.10
80252;DHT22;69562;37.974;23.708;2023-04-24T15:19:07;25.40;33.90
80252;DHT22;69562;37.974;23.708;2023-04-24T15:21:33;25.30;33.70
80252;DHT22;69562;37.974;23.708;2023-04-24T15:23:59;25.30;33.70
80252;DHT22;69562;37.974;23.708;2023-04-24T15:26:25;25.40;33.80
80252;DHT22;69562;37.974;23.708;2023-04-24T15:28:51;25.40;33.80
80252;DHT22;69562;37.974;23.708;2023-04-24T15:31:17;25.40;33.70